Welcome to Northern Hawkes Bay. New Zealand.
PWS Header
      nz Flag



Hit Counter


W3C Valid W3C Valid logo


    Wairoa

Select any of the Stations below to visit their websites.










Historic Data from Weather Underground
Select the location of interest below. Wairoa is the default. Please have patience, this Data is slow to load in.
Northern Hawkes Bay Historical Data
Daily Summary for June 15, 2017 Units:  English    Metric   Both
« Previous Day
Next Day »
Daily Weekly Monthly Yearly Custom
  High: Low: Average:
Temperature: 61.5 °F 39.2 °F 49.5 °F
Dew Point: 41 °F 33.4 °F 38.5 °F
Humidity: 99% 37% 68%
Wind Speed: 28.9mph 0mph 7.8mph
Wind Gust: 38.7mph - -
Wind- - WSW
Pressure: 30.2 in 30 in -
Precipitation: 0 in    
Historical Graphs
 
 
Tabular Data for June 15, 2017
Time Temperature Dew Point Pressure Wind Wind Speed Wind Gust Humidity Rainfall Rate (Hourly) solar
00:05 49.1 °F 39 °F 30.1 in SW 21.3 mph 32 mph 68% 0.01 in 0 W/m2
00:10 48.9 °F 38.8 °F 30.1 in SW 21.3 mph 33.6 mph 68% 0.01 in 0 W/m2
00:15 48.9 °F 38.5 °F 30.1 in SW 18.3 mph 33.6 mph 67% 0.01 in 0 W/m2
00:20 48.9 °F 38.5 °F 30.1 in SW 15.9 mph 33.6 mph 67% 0.01 in 0 W/m2
00:25 49.1 °F 38.7 °F 30.1 in SW 19 mph 26.6 mph 67% 0 in 0 W/m2
00:30 49.3 °F 38.5 °F 30.1 in SW 13.6 mph 30.4 mph 66% 0 in 0 W/m2
00:35 49.3 °F 38.8 °F 30.1 in SW 18.3 mph 30.4 mph 67% 0 in 0 W/m2
00:40 49.3 °F 38.5 °F 30.1 in SW 24.4 mph 31.1 mph 66% 0 in 0 W/m2
00:45 49.3 °F 38.5 °F 30.1 in WSW 19.7 mph 34.2 mph 66% 0 in 0 W/m2
00:50 49.3 °F 37.9 °F 30.1 in SW 15.9 mph 34.2 mph 65% 0 in 0 W/m2
00:55 49.1 °F 37.9 °F 30.1 in SW 15.9 mph 30.4 mph 65% 0 in 0 W/m2
01:00 49.1 °F 37.9 °F 30.1 in SW 16.8 mph 30.4 mph 65% 0 in 0 W/m2
01:05 49.1 °F 38.1 °F 30.1 in SW 15.9 mph 32.7 mph 66% 0 in 0 W/m2
01:10 49.1 °F 37.9 °F 30.1 in SW 14.5 mph 32.7 mph 65% 0 in 0 W/m2
01:15 49.3 °F 38.5 °F 30.1 in WSW 18.3 mph 33.6 mph 66% 0 in 0 W/m2
01:20 49.3 °F 38.8 °F 30.1 in WSW 21.3 mph 33.6 mph 67% 0 in 0 W/m2
01:25 49.8 °F 38.1 °F 30.1 in WSW 19 mph 32.7 mph 64% 0 in 0 W/m2
01:30 49.6 °F 37.2 °F 30.1 in SW 18.3 mph 34.2 mph 62% 0 in 0 W/m2
01:35 50 °F 36.7 °F 30.1 in SW 28.9 mph 38 mph 60% 0 in 0 W/m2
01:40 50 °F 37.6 °F 30.1 in SW 25.9 mph 38 mph 62% 0 in 0 W/m2
01:45 50 °F 37 °F 30.1 in SW 27.3 mph 35.8 mph 61% 0 in 0 W/m2
01:50 50.2 °F 36.3 °F 30.1 in SW 20.6 mph 34.2 mph 59% 0 in 0 W/m2
01:55 50.2 °F 36.3 °F 30.1 in SW 24.4 mph 37.4 mph 59% 0 in 0 W/m2
02:00 50 °F 36.7 °F 30.1 in SW 20.6 mph 37.4 mph 60% 0 in 0 W/m2
02:05 50 °F 37.9 °F 30.1 in WSW 15.2 mph 35.8 mph 63% 0 in 0 W/m2
02:10 50 °F 37.9 °F 30.1 in WSW 14.5 mph 35.8 mph 63% 0 in 0 W/m2
02:15 49.8 °F 37.8 °F 30.1 in WSW 25.9 mph 34.9 mph 63% 0 in 0 W/m2
02:20 49.8 °F 37.8 °F 30.1 in WSW 15.2 mph 33.6 mph 63% 0 in 0 W/m2
02:25 49.6 °F 38.5 °F 30.1 in SW 19 mph 33.6 mph 65% 0 in 0 W/m2
02:30 49.5 °F 38.1 °F 30.1 in SW 22.8 mph 31.1 mph 65% 0 in 0 W/m2
02:35 49.5 °F 38.7 °F 30.1 in SW 18.3 mph 33.6 mph 66% 0 in 0 W/m2
02:40 49.3 °F 38.5 °F 30.1 in WSW 19 mph 33.6 mph 66% 0 in 0 W/m2
02:45 49.3 °F 38.5 °F 30.1 in WSW 17.4 mph 38.7 mph 66% 0 in 0 W/m2
02:50 49.1 °F 38.7 °F 30.1 in WSW 20.6 mph 38.7 mph 67% 0 in 0 W/m2
02:55 49.3 °F 37.9 °F 30.1 in WSW 19.7 mph 33.6 mph 65% 0 in 0 W/m2
03:00 49.3 °F 37.9 °F 30.1 in WSW 21.3 mph 33.6 mph 65% 0 in 0 W/m2
03:05 49.1 °F 37.6 °F 30.1 in WSW 16.8 mph 30.4 mph 64% 0 in 0 W/m2
03:10 49.1 °F 37.9 °F 30.1 in SW 22.8 mph 30.4 mph 65% 0 in 0 W/m2
03:15 49.3 °F 37.6 °F 30.1 in SW 19 mph 28.9 mph 64% 0 in 0 W/m2
03:20 49.5 °F 37.8 °F 30.1 in SW 20.6 mph 32 mph 64% 0 in 0 W/m2
03:25 49.3 °F 37.6 °F 30.1 in WSW 23.5 mph 32 mph 64% 0 in 0 W/m2
03:30 49.5 °F 38.1 °F 30.1 in WSW 16.8 mph 31.1 mph 65% 0 in 0 W/m2
03:35 49.5 °F 38.1 °F 30.1 in WSW 18.3 mph 28.9 mph 65% 0 in 0 W/m2
03:40 49.5 °F 38.7 °F 30.1 in WSW 10.7 mph 29.8 mph 66% 0 in 0 W/m2
03:45 49.5 °F 39.4 °F 30.1 in WSW 15.9 mph 29.8 mph 68% 0 in 0 W/m2
03:50 49.5 °F 39 °F 30.1 in SW 17.4 mph 28.2 mph 67% 0 in 0 W/m2
03:55 49.5 °F 38.7 °F 30.1 in SW 13.6 mph 29.8 mph 66% 0 in 0 W/m2
04:00 49.5 °F 39 °F 30.1 in SW 19 mph 29.8 mph 67% 0 in 0 W/m2
04:05 49.5 °F 38.1 °F 30.1 in SW 15.9 mph 29.8 mph 65% 0 in 0 W/m2
04:10 49.5 °F 38.7 °F 30.1 in SW 13 mph 29.8 mph 66% 0 in 0 W/m2
04:15 49.5 °F 39 °F 30.1 in SW 19 mph 29.8 mph 67% 0 in 0 W/m2
04:20 49.5 °F 38.1 °F 30.1 in WSW 19 mph 27.3 mph 65% 0 in 0 W/m2
04:25 49.6 °F 38.8 °F 30.1 in WSW 14.5 mph 28.2 mph 66% 0 in 0 W/m2
04:30 49.6 °F 38.5 °F 30.1 in SW 21.3 mph 28.9 mph 65% 0 in 0 W/m2
04:35 49.6 °F 38.5 °F 30.1 in SW 11.4 mph 28.9 mph 65% 0 in 0 W/m2
04:40 50 °F 38.7 °F 30.1 in WSW 13.6 mph 29.8 mph 65% 0 in 0 W/m2
04:45 50 °F 38.3 °F 30.1 in SW 15.2 mph 29.8 mph 64% 0 in 0 W/m2
04:50 50 °F 38.7 °F 30.1 in SW 12.1 mph 27.3 mph 65% 0 in 0 W/m2
04:55 50 °F 38.7 °F 30.1 in WSW 16.8 mph 27.3 mph 65% 0 in 0 W/m2
05:00 50 °F 38.7 °F 30.1 in SW 20.6 mph 28.2 mph 65% 0 in 0 W/m2
05:05 49.8 °F 38.8 °F 30.1 in SW 14.5 mph 31.1 mph 66% 0 in 0 W/m2
05:10 49.3 °F 38.5 °F 30.1 in SW 17.4 mph 31.1 mph 66% 0 in 0 W/m2
05:15 49.5 °F 39 °F 30.1 in SW 17.4 mph 30.4 mph 67% 0 in 0 W/m2
05:20 49.5 °F 39.4 °F 30.1 in SW 15.9 mph 30.4 mph 68% 0 in 0 W/m2
05:25 49.6 °F 39.6 °F 30.1 in SW 16.8 mph 24.4 mph 68% 0 in 0 W/m2
05:30 49.6 °F 39.6 °F 30.1 in SW 19 mph 28.9 mph 68% 0 in 0 W/m2
05:35 49.6 °F 39.6 °F 30.1 in WSW 15.9 mph 28.9 mph 68% 0 in 0 W/m2
05:40 49.8 °F 39.4 °F 30.1 in SW 17.4 mph 28.9 mph 67% 0 in 0 W/m2
05:45 49.8 °F 39.4 °F 30.1 in SW 16.8 mph 28.9 mph 67% 0 in 0 W/m2
05:50 49.8 °F 38.8 °F 30.1 in SW 14.5 mph 27.3 mph 66% 0 in 0 W/m2
05:55 49.8 °F 39.4 °F 30.1 in WSW 15.9 mph 27.3 mph 67% 0 in 0 W/m2
06:00 49.8 °F 38.5 °F 30.1 in West 16.8 mph 25.9 mph 65% 0 in 0 W/m2
06:05 50 °F 38.3 °F 30.1 in WSW 15.2 mph 25.9 mph 64% 0 in 0 W/m2
06:25 50 °F 38.7 °F 30.1 in WSW 14.5 mph 26.6 mph 65% 0 in 0 W/m2
06:30 49.8 °F 38.8 °F 30.1 in WSW 19 mph 28.2 mph 66% 0 in 0 W/m2
06:35 49.6 °F 38.8 °F 30.2 in SW 13 mph 28.2 mph 66% 0 in 0 W/m2
06:40 49.6 °F 38.8 °F 30.2 in SW 18.3 mph 24.4 mph 66% 0 in 0 W/m2
06:45 49.8 °F 38.5 °F 30.2 in SW 15.2 mph 23.5 mph 65% 0 in 0 W/m2
06:50 49.8 °F 38.8 °F 30.2 in WSW 7.6 mph 23.5 mph 66% 0 in 0 W/m2
06:55 49.8 °F 38.8 °F 30.2 in WSW 18.3 mph 22.8 mph 66% 0 in 0 W/m2
07:00 49.8 °F 38.5 °F 30.2 in WSW 15.9 mph 22.1 mph 65% 0 in 0 W/m2
07:05 49.8 °F 38.8 °F 30.2 in WSW 12.1 mph 22.1 mph 66% 0 in 0 W/m2
07:10 50 °F 38.7 °F 30.2 in SW 10.7 mph 22.1 mph 65% 0 in 0 W/m2
07:15 49.8 °F 38.8 °F 30.2 in SW 8.3 mph 22.1 mph 66% 0 in 0 W/m2
07:20 49.8 °F 38.8 °F 30.2 in WSW 8.3 mph 19.7 mph 66% 0 in 0 W/m2
07:25 49.8 °F 39.4 °F 30.2 in WSW 9.8 mph 19.7 mph 67% 0 in 0 W/m2
07:30 49.6 °F 39 °F 30.2 in WSW 13 mph 20.6 mph 67% 0 in 0 W/m2
07:35 49.6 °F 39 °F 30.2 in WSW 13 mph 21.3 mph 67% 0 in 0 W/m2
07:40 49.8 °F 39.4 °F 30.2 in WSW 9.2 mph 24.4 mph 67% 0 in 0 W/m2
07:45 49.8 °F 39.4 °F 30.2 in WSW 17.4 mph 24.4 mph 67% 0 in 2 W/m2
07:50 49.8 °F 38.8 °F 30.2 in SW 12.1 mph 22.1 mph 66% 0 in 3 W/m2
07:55 49.8 °F 38.8 °F 30.2 in WSW 9.2 mph 20.6 mph 66% 0 in 4 W/m2
08:00 49.6 °F 38.8 °F 30.2 in WSW 9.8 mph 19.7 mph 66% 0 in 6 W/m2
08:05 49.6 °F 39 °F 30.2 in SW 6 mph 19.7 mph 67% 0 in 7 W/m2
08:10 49.3 °F 38.8 °F 30.2 in WSW 6 mph 15.9 mph 67% 0 in 11 W/m2
08:15 49.1 °F 38.1 °F 30.2 in West 6.9 mph 12.1 mph 66% 0 in 18 W/m2
08:20 48.9 °F 38.5 °F 30.2 in West 6.9 mph 12.1 mph 67% 0 in 19 W/m2
08:25 48.9 °F 38.5 °F 30.2 in WSW 5.4 mph 12.1 mph 67% 0 in 24 W/m2
08:30 48.7 °F 37.9 °F 30.2 in SW 7.6 mph 12.1 mph 66% 0 in 30 W/m2
08:35 48.7 °F 37.9 °F 30.2 in WSW 3.8 mph 13.6 mph 66% 0 in 30 W/m2
08:40 48.7 °F 37.9 °F 30.2 in West 6.9 mph 13.6 mph 66% 0 in 40 W/m2
08:45 48.6 °F 37.8 °F 30.2 in WNW 7.6 mph 10.7 mph 66% 0 in 38 W/m2
08:50 48.4 °F 37.6 °F 30.2 in WNW 4.5 mph 11.4 mph 66% 0 in 67 W/m2
08:55 49.1 °F 38.1 °F 30.2 in West 3.8 mph 11.4 mph 66% 0 in 143 W/m2
09:00 50 °F 38.3 °F 30.2 in West 5.4 mph 9.8 mph 64% 0 in 154 W/m2
09:05 50.4 °F 38.3 °F 30.2 in WSW 4.5 mph 11.4 mph 63% 0 in 161 W/m2
09:10 50.7 °F 38.7 °F 30.2 in West 4.5 mph 15.2 mph 63% 0 in 167 W/m2
09:15 50.9 °F 38.5 °F 30.2 in WSW 5.4 mph 15.2 mph 62% 0 in 180 W/m2
09:20 51.1 °F 38.5 °F 30.2 in West 3.8 mph 9.2 mph 62% 0 in 191 W/m2
09:25 51.4 °F 38.8 °F 30.2 in WNW 1.6 mph 9.2 mph 62% 0 in 198 W/m2
09:30 51.8 °F 37.9 °F 30.2 in NW 3.1 mph 8.3 mph 59% 0 in 206 W/m2
09:35 51.8 °F 37.6 °F 30.2 in West 5.4 mph 8.3 mph 58% 0 in 211 W/m2
09:40 51.8 °F 37.9 °F 30.2 in WSW 5.4 mph 8.3 mph 59% 0 in 210 W/m2
09:45 51.8 °F 37.9 °F 30.2 in WSW 4.5 mph 10.7 mph 59% 0 in 184 W/m2
09:50 51.8 °F 38.5 °F 30.2 in WSW 4.5 mph 10.7 mph 60% 0 in 147 W/m2
09:55 52.3 °F 39.4 °F 30.2 in WSW 2.2 mph 9.8 mph 61% 0 in 102 W/m2
10:00 53.2 °F 39.7 °F 30.2 in WSW 2.2 mph 9.8 mph 60% 0 in 118 W/m2
10:05 53.2 °F 38.5 °F 30.2 in West 5.4 mph 9.2 mph 57% 0 in 120 W/m2
10:10 52.5 °F 38.7 °F 30.2 in West 4.5 mph 9.8 mph 59% 0 in 98 W/m2
10:15 52.5 °F 38.7 °F 30.2 in NW 4.5 mph 9.8 mph 59% 0 in 82 W/m2
10:20 53.1 °F 39 °F 30.2 in NW 4.5 mph 8.3 mph 59% 0 in 77 W/m2
10:25 52.9 °F 39 °F 30.2 in West 3.8 mph 8.3 mph 59% 0 in 75 W/m2
10:30 53.1 °F 38.7 °F 30.2 in WSW 4.5 mph 8.3 mph 58% 0 in 73 W/m2
10:35 52.9 °F 39 °F 30.2 in West 4.5 mph 9.2 mph 59% 0 in 70 W/m2
10:40 52.9 °F 39.4 °F 30.2 in West 4.5 mph 9.2 mph 60% 0 in 68 W/m2
10:45 52.7 °F 39.2 °F 30.2 in WSW 3.8 mph 13 mph 60% 0 in 66 W/m2
10:50 52.7 °F 39.6 °F 30.2 in WSW 4.5 mph 13 mph 61% 0 in 65 W/m2
10:55 53.2 °F 40.1 °F 30.2 in West 6 mph 9.8 mph 61% 0 in 65 W/m2
11:00 53.1 °F 39.9 °F 30.2 in WSW 3.8 mph 9.2 mph 61% 0 in 66 W/m2
11:05 53.4 °F 40.6 °F 30.2 in WSW 4.5 mph 9.2 mph 62% 0 in 65 W/m2
11:10 53.6 °F 39.6 °F 30.2 in West 3.1 mph 7.6 mph 59% 0 in 65 W/m2
11:15 54.3 °F 39.9 °F 30.2 in WNW 1.6 mph 5.4 mph 58% 0 in 65 W/m2
11:20 54.9 °F 40.8 °F 30.2 in WSW 5.4 mph 6 mph 59% 0 in 65 W/m2
11:25 54 °F 38.7 °F 30.2 in SW 3.8 mph 6.9 mph 56% 0 in 64 W/m2
11:30 53.6 °F 38.7 °F 30.2 in SW 3.8 mph 9.2 mph 57% 0 in 62 W/m2
11:35 53.6 °F 38.7 °F 30.2 in WSW 4.5 mph 9.2 mph 57% 0 in 61 W/m2
11:40 54 °F 39 °F 30.2 in WSW 4.5 mph 8.3 mph 57% 0 in 61 W/m2
11:45 54.5 °F 39.6 °F 30.2 in WSW 2.2 mph 7.6 mph 57% 0 in 60 W/m2
11:50 54.7 °F 39.4 °F 30.2 in WSW 3.1 mph 6.9 mph 56% 0 in 59 W/m2
11:55 54.7 °F 38.5 °F 30.2 in West 3.1 mph 6.9 mph 54% 0 in 57 W/m2
12:00 55 °F 38.1 °F 30.1 in West 3.8 mph 6.9 mph 53% 0 in 57 W/m2
12:05 55.4 °F 39 °F 30.1 in West 3.1 mph 5.4 mph 54% 0 in 57 W/m2
12:10 54.9 °F 37.6 °F 30.1 in West 2.2 mph 6 mph 52% 0 in 57 W/m2
12:15 55.9 °F 39 °F 30.1 in West 2.2 mph 6 mph 53% 0 in 56 W/m2
12:20 56.3 °F 38.5 °F 30.1 in NNW 3.1 mph 7.6 mph 51% 0 in 56 W/m2
12:25 55.9 °F 37.6 °F 30.1 in NNW 3.8 mph 7.6 mph 50% 0 in 55 W/m2
12:30 55.2 °F 36.9 °F 30.1 in NW 3.8 mph 9.8 mph 50% 0 in 55 W/m2
12:35 55.8 °F 37.4 °F 30.1 in NW 2.2 mph 9.8 mph 50% 0 in 56 W/m2
12:53 55.8 °F 37.4 °F 30.1 in NNW 4.5 mph 8.3 mph 50% 0 in 58 W/m2
12:58 55.8 °F 37.9 °F 30.1 in NNW 3.8 mph 9.8 mph 51% 0 in 58 W/m2
13:03 56.3 °F 38.5 °F 30.1 in North 3.8 mph 9.8 mph 51% 0 in 59 W/m2
13:08 57.2 °F 37.8 °F 30.1 in North 3.8 mph 8.3 mph 48% 0 in 59 W/m2
13:14 57.2 °F 36.7 °F 30.1 in North 4.5 mph 7.6 mph 46% 0 in 61 W/m2
13:19 56.7 °F 36.1 °F 30.1 in North 2.2 mph 7.6 mph 46% 0 in 62 W/m2
13:24 57.6 °F 36.9 °F 30.1 in North 2.2 mph 7.6 mph 46% 0 in 64 W/m2
13:29 57.7 °F 36.7 °F 30.1 in North 4.5 mph 6.9 mph 45% 0 in 64 W/m2
13:34 57.2 °F 35.4 °F 30.1 in NNW 4.5 mph 7.6 mph 44% 0 in 65 W/m2
13:39 57.6 °F 33.4 °F 30.1 in NNW 3.1 mph 7.6 mph 40% 0 in 67 W/m2
13:44 57.6 °F 33.4 °F 30.1 in NNW 4.5 mph 6 mph 40% 0 in 72 W/m2
13:49 57.9 °F 33.8 °F 30.1 in North 3.8 mph 6 mph 40% 0 in 102 W/m2
13:54 58.5 °F 35.4 °F 30.1 in NNE 4.5 mph 6.9 mph 42% 0 in 166 W/m2
13:59 58.6 °F 36.1 °F 30.1 in North 3.1 mph 7.6 mph 43% 0 in 228 W/m2
14:04 58.5 °F 35.4 °F 30.1 in North 3.1 mph 8.3 mph 42% 0 in 241 W/m2
14:09 58.6 °F 36.9 °F 30.1 in North 3.1 mph 8.3 mph 44% 0 in 245 W/m2
14:14 59.9 °F 37.4 °F 30.1 in NNE 3.1 mph 5.4 mph 43% 0 in 242 W/m2
14:19 59.5 °F 37.6 °F 30 in NNE 3.1 mph 6 mph 44% 0 in 238 W/m2
14:25 59.7 °F 37.2 °F 30 in NNE 3.1 mph 6 mph 43% 0 in 234 W/m2
14:30 59.9 °F 37.9 °F 30 in North 3.1 mph 5.4 mph 44% 0 in 230 W/m2
14:35 60.8 °F 38.1 °F 30 in North 0.7 mph 5.4 mph 43% 0 in 227 W/m2
14:40 61.3 °F 36.9 °F 30 in NNE 2.2 mph 4.5 mph 40% 0 in 222 W/m2
14:45 60.8 °F 35.8 °F 30 in NNE 1.6 mph 5.4 mph 39% 0 in 215 W/m2
14:50 61 °F 35.2 °F 30 in NE 3.1 mph 5.4 mph 38% 0 in 208 W/m2
14:55 59.9 °F 36.1 °F 30 in NNE 1.6 mph 4.5 mph 41% 0 in 201 W/m2
14:56 60.1 °F 36.3 °F 30 in NNE 1.6 mph 4.5 mph 41% 0 in 199 W/m2
15:01 60.3 °F 36.5 °F 30 in North 2.2 mph 4.5 mph 41% 0 in 190 W/m2
15:06 60.4 °F 36.7 °F 30 in North 2.2 mph 4.5 mph 41% 0 in 181 W/m2
15:11 60.1 °F 35.8 °F 30 in NNE 0.7 mph 4.5 mph 40% 0 in 167 W/m2
15:16 61 °F 35.2 °F 30 in North 1.6 mph 3.8 mph 38% 0 in 146 W/m2
15:21 61.3 °F 36.1 °F 30 in NNE 0.7 mph 3.8 mph 39% 0 in 130 W/m2
15:26 61 °F 34.5 °F 30 in NNE 3.1 mph 6 mph 37% 0 in 122 W/m2
15:31 60.8 °F 35.8 °F 30 in NE 1.6 mph 6 mph 39% 0 in 113 W/m2
15:36 61.5 °F 36.3 °F 30 in NE 0.7 mph 4.5 mph 39% 0 in 105 W/m2
15:41 61.5 °F 36.3 °F 30 in ENE 0.7 mph 3.1 mph 39% 0 in 95 W/m2
15:46 61.5 °F 36.3 °F 30 in ENE 0.7 mph 3.1 mph 39% 0 in 86 W/m2
15:51 61.3 °F 36.9 °F 30 in NE 1.6 mph 3.1 mph 40% 0 in 76 W/m2
15:56 60.1 °F 35.8 °F 30 in NNE 2.2 mph 3.8 mph 40% 0 in 66 W/m2
16:01 59.5 °F 37 °F 30 in NNE 0.7 mph 3.8 mph 43% 0 in 57 W/m2
16:06 59.7 °F 37.2 °F 30 in NNE 1.6 mph 3.8 mph 43% 0 in 49 W/m2
16:11 59.4 °F 36.9 °F 30 in North 0.7 mph 3.1 mph 43% 0 in 41 W/m2
16:16 59.7 °F 37.8 °F 30 in North 0.7 mph 3.1 mph 44% 0 in 35 W/m2
16:21 59.2 °F 37.2 °F 30 in Calm   3.1 mph 44% 0 in 29 W/m2
16:26 58.8 °F 38.1 °F 30 in NNW 1.6 mph 3.1 mph 46% 0 in 23 W/m2
16:31 57.9 °F 37.8 °F 30 in NNW 0.7 mph 3.1 mph 47% 0 in 19 W/m2
16:36 56.8 °F 37.4 °F 30 in NNW 1.6 mph 2.2 mph 48% 0 in 12 W/m2
16:41 55.8 °F 37.4 °F 30 in North 1.6 mph 2.2 mph 50% 0 in 8 W/m2
16:46 54.5 °F 37.2 °F 30 in North 0.7 mph 2.2 mph 52% 0 in 4 W/m2
16:51 53.2 °F 37.6 °F 30 in North 0.7 mph 2.2 mph 55% 0 in 1 W/m2
16:56 52 °F 37.8 °F 30 in North 0.7 mph 1.6 mph 58% 0 in 0 W/m2
17:02 51.3 °F 38.7 °F 30 in NNE 1.6 mph 2.2 mph 62% 0 in 0 W/m2
17:07 50.5 °F 38.8 °F 30 in NNE 0.7 mph 2.2 mph 64% 0 in 0 W/m2
17:12 49.8 °F 38.8 °F 30 in NNW 1.6 mph 3.8 mph 66% 0 in 0 W/m2
17:17 49.1 °F 39 °F 30 in Calm   3.8 mph 68% 0 in 0 W/m2
17:22 48 °F 39 °F 30 in NW 0.7 mph 2.2 mph 71% 0 in 0 W/m2
17:27 47.3 °F 39.4 °F 30 in Calm   2.2 mph 74% 0 in 0 W/m2
17:32 46.9 °F 39.4 °F 30 in ENE 1.6 mph 2.2 mph 75% 0 in 0 W/m2
17:37 46.8 °F 39.6 °F 30 in NNE 1.6 mph 2.2 mph 76% 0 in 0 W/m2
17:42 46.2 °F 39.4 °F 30 in NNW 1.6 mph 2.2 mph 77% 0 in 0 W/m2
17:47 45.7 °F 39.2 °F 30 in Calm   3.1 mph 78% 0 in 0 W/m2
17:52 45.3 °F 39.2 °F 30 in NNW 2.2 mph 3.1 mph 79% 0 in 0 W/m2
17:57 45.3 °F 39.7 °F 30 in North 1.6 mph 3.1 mph 81% 0 in 0 W/m2
18:02 45.1 °F 39.7 °F 30 in North 1.6 mph 3.1 mph 81% 0 in 0 W/m2
18:07 44.6 °F 39.6 °F 30 in North 0.7 mph 3.1 mph 82% 0 in 0 W/m2
18:12 44.1 °F 39.2 °F 30 in Calm   3.1 mph 83% 0 in 0 W/m2
18:17 43.7 °F 38.8 °F 30 in Calm   2.2 mph 83% 0 in 0 W/m2
18:22 43.3 °F 38.8 °F 30 in NNW 2.2 mph 3.1 mph 84% 0 in 0 W/m2
18:27 43.2 °F 39 °F 30 in NNW 3.1 mph 4.5 mph 85% 0 in 0 W/m2
18:32 43 °F 39.4 °F 30 in NNW 2.2 mph 4.5 mph 87% 0 in 0 W/m2
18:37 42.8 °F 39.6 °F 30 in NNW 1.6 mph 4.5 mph 88% 0 in 0 W/m2
18:42 42.8 °F 40.1 °F 30 in NNW 3.1 mph 5.4 mph 90% 0 in 0 W/m2
18:47 42.6 °F 40.5 °F 30 in NNW 2.2 mph 5.4 mph 92% 0 in 0 W/m2
18:52 42.4 °F 40.6 °F 30 in NNW 1.6 mph 4.5 mph 93% 0 in 0 W/m2
18:57 42.3 °F 40.5 °F 30 in NNW 2.2 mph 3.8 mph 93% 0 in 0 W/m2
19:02 42.1 °F 40.5 °F 30 in NNW 2.2 mph 3.8 mph 94% 0 in 0 W/m2
19:07 42.1 °F 40.5 °F 30 in NNW 3.1 mph 4.5 mph 94% 0 in 0 W/m2
19:12 42.1 °F 40.8 °F 30 in NW 2.2 mph 4.5 mph 95% 0 in 0 W/m2
19:17 42.1 °F 40.8 °F 30 in NW 3.1 mph 4.5 mph 95% 0 in 0 W/m2
19:22 42.1 °F 40.8 °F 30 in NW 2.2 mph 4.5 mph 95% 0 in 0 W/m2
19:27 42.1 °F 40.8 °F 30 in NNW 3.1 mph 5.4 mph 95% 0 in 0 W/m2
19:32 42.1 °F 41 °F 30.1 in NNW 3.1 mph 5.4 mph 96% 0 in 0 W/m2
19:37 42.1 °F 41 °F 30.1 in NW 3.1 mph 5.4 mph 96% 0 in 0 W/m2
19:42 42.1 °F 41 °F 30.1 in NW 4.5 mph 6 mph 96% 0 in 0 W/m2
19:47 42.1 °F 41 °F 30.1 in NW 3.1 mph 6 mph 96% 0 in 0 W/m2
19:52 41.9 °F 40.8 °F 30.1 in NNW 3.1 mph 6 mph 96% 0 in 0 W/m2
19:57 41.9 °F 40.8 °F 30.1 in NNW 3.1 mph 6 mph 96% 0 in 0 W/m2
20:02 41.7 °F 40.6 °F 30.1 in NNW 3.1 mph 6 mph 96% 0 in 0 W/m2
20:07 41.7 °F 40.6 °F 30.1 in NNW 3.1 mph 5.4 mph 96% 0 in 0 W/m2
20:12 41.5 °F 40.8 °F 30.1 in NNW 4.5 mph 6 mph 97% 0 in 0 W/m2
20:17 41.4 °F 40.6 °F 30.1 in NNW 6 mph 8.3 mph 97% 0 in 0 W/m2
20:22 41.4 °F 40.6 °F 30.1 in NW 4.5 mph 8.3 mph 97% 0 in 0 W/m2
20:27 41.4 °F 40.6 °F 30.1 in NW 2.2 mph 8.3 mph 97% 0 in 0 W/m2
20:32 41.4 °F 40.6 °F 30.1 in NW 3.1 mph 7.6 mph 97% 0 in 0 W/m2
20:37 41.2 °F 40.5 °F 30.1 in NW 2.2 mph 4.5 mph 97% 0 in 0 W/m2
20:42 40.8 °F 40.3 °F 30.1 in NW 3.8 mph 5.4 mph 98% 0 in 0 W/m2
20:47 40.6 °F 40.1 °F 30.1 in NW 3.1 mph 5.4 mph 98% 0 in 0 W/m2
20:52 40.8 °F 40.6 °F 30.1 in NW 3.1 mph 7.6 mph 99% 0 in 0 W/m2
20:57 41 °F 40.5 °F 30.1 in NW 3.1 mph 7.6 mph 98% 0 in 0 W/m2
21:02 41 °F 40.5 °F 30.1 in NW 3.8 mph 6.9 mph 98% 0 in 0 W/m2
21:07 41 °F 40.5 °F 30.1 in NNW 3.1 mph 6 mph 98% 0 in 0 W/m2
21:12 41 °F 40.5 °F 30.1 in NNW 3.8 mph 6 mph 98% 0 in 0 W/m2
21:17 40.8 °F 40.6 °F 30.1 in NNW 3.1 mph 6 mph 99% 0 in 0 W/m2
21:22 40.5 °F 40.3 °F 30.1 in NNW 5.4 mph 6 mph 99% 0 in 0 W/m2
21:27 40.3 °F 39.9 °F 30.1 in NNW 3.8 mph 6.9 mph 99% 0 in 0 W/m2
21:32 40.1 °F 39.7 °F 30.1 in NW 4.5 mph 6.9 mph 99% 0 in 0 W/m2
21:37 40.1 °F 39.7 °F 30.1 in NW 3.8 mph 9.2 mph 99% 0 in 0 W/m2
21:42 39.9 °F 39.7 °F 30.1 in NW 3.8 mph 9.2 mph 99% 0 in 0 W/m2
21:48 39.9 °F 39.7 °F 30.1 in NW 5.4 mph 6.9 mph 99% 0 in 0 W/m2
21:54 39.6 °F 39.4 °F 30.1 in NW 3.8 mph 7.6 mph 99% 0 in 0 W/m2
21:59 39.7 °F 39.6 °F 30.1 in WNW 5.4 mph 7.6 mph 99% 0 in 0 W/m2
22:04 39.7 °F 39.6 °F 30.1 in NW 5.4 mph 9.2 mph 99% 0 in 0 W/m2
22:09 39.7 °F 39.6 °F 30.1 in NW 4.5 mph 9.2 mph 99% 0 in 0 W/m2
22:14 39.7 °F 39.6 °F 30.1 in NW 3.8 mph 8.3 mph 99% 0 in 0 W/m2
22:19 39.9 °F 39.7 °F 30.1 in NW 4.5 mph 6 mph 99% 0 in 0 W/m2
22:24 39.7 °F 39.6 °F 30.1 in NW 4.5 mph 6 mph 99% 0 in 0 W/m2
22:29 39.7 °F 39.6 °F 30.1 in NW 5.4 mph 6.9 mph 99% 0 in 0 W/m2
22:34 39.6 °F 39 °F 30.1 in NW 6 mph 6.9 mph 98% 0 in 0 W/m2
22:39 39.6 °F 39 °F 30.1 in NW 4.5 mph 7.6 mph 98% 0 in 0 W/m2
22:44 39.6 °F 39 °F 30.1 in NW 4.5 mph 7.6 mph 98% 0 in 0 W/m2
22:49 39.7 °F 39.2 °F 30.1 in NW 4.5 mph 6.9 mph 98% 0 in 0 W/m2
22:54 39.7 °F 39.2 °F 30.1 in NW 6.9 mph 8.3 mph 98% 0 in 0 W/m2
22:59 39.7 °F 39.2 °F 30.1 in NW 3.8 mph 9.2 mph 98% 0 in 0 W/m2
23:04 39.6 °F 39 °F 30.1 in NW 4.5 mph 9.2 mph 98% 0 in 0 W/m2
23:09 39.4 °F 38.7 °F 30.1 in NW 5.4 mph 9.2 mph 97% 0 in 0 W/m2
23:14 39.2 °F 38.5 °F 30.1 in NW 5.4 mph 9.8 mph 97% 0 in 0 W/m2
23:19 39.2 °F 38.5 °F 30.1 in NW 6 mph 9.8 mph 97% 0 in 0 W/m2
23:24 39.2 °F 38.5 °F 30.1 in NW 5.4 mph 8.3 mph 97% 0 in 0 W/m2
23:29 39.2 °F 38.5 °F 30.1 in NNW 5.4 mph 9.2 mph 97% 0 in 0 W/m2
23:34 39.2 °F 38.5 °F 30.1 in NW 5.4 mph 9.2 mph 97% 0 in 0 W/m2
23:39 39.2 °F 38.5 °F 30.1 in NW 4.5 mph 8.3 mph 97% 0 in 0 W/m2
23:44 39.2 °F 38.5 °F 30.1 in NW 3.8 mph 8.3 mph 97% 0 in 0 W/m2
23:49 39.2 °F 38.5 °F 30.1 in NW 5.4 mph 7.6 mph 97% 0 in 0 W/m2
23:54 39.2 °F 38.5 °F 30.1 in NW 4.5 mph 7.6 mph 97% 0 in 0 W/m2
23:59 39.4 °F 38.7 °F 30.1 in NNW 4.5 mph 7.6 mph 97% 0 in 0 W/m2
Northern Hawkes Bay. New Zealand Historic Data
Compliments of Weather Underground - 2.25 mb